Date,TemperatureHighF,TemperatureAvgF,TemperatureLowF,DewpointHighF,DewpointAvgF,DewpointLowF,HumidityHigh,HumidityAvg,HumidityLow,PressureMaxIn,PressureMinIn,WindSpeedMaxMPH,WindSpeedAvgMPH,GustSpeedMaxMPH,PrecipitationSumIn
2014-1-1,25.0,16.2,7.2,18.1,-27.7,-99.9,75,42,52,23.92,23.74,5,2,10,0.04
2014-1-2,36.1,26.6,7.7,14.2,-4.5,-99.9,67,40,24,23.92,23.74,7,3,11,0.04
2014-1-3,36.1,29.7,19.0,13.5,6.6,-9.6,54,38,21,23.74,40.00,10,5,24,0.00
2014-1-4,21.0,16.4,10.0,1.9,-24.1,-99.9,58,30,20,23.68,23.65,8,3,14,0.00
2014-1-5,13.1,7.1,-2.6,-99.9,-99.9,-99.9,0,0,100,23.95,23.68,7,3,12,0.00
2014-1-6,27.3,13.1,-1.8,-6.2,-51.7,-99.9,38,14,17,23.98,23.80,8,4,12,0.00
2014-1-7,31.5,21.6,13.1,7.3,-1.5,-99.9,54,38,18,23.80,23.68,6,2,11,0.00
2014-1-8,32.5,26.6,22.1,17.6,9.5,3.7,70,48,36,23.68,23.59,6,2,12,0.00
2014-1-9,30.7,26.2,18.0,19.4,11.9,1.4,69,55,42,23.59,23.50,7,3,15,0.00
2014-1-10,32.9,27.0,20.8,10.0,6.4,-2.6,52,41,31,23.68,23.50,9,4,16,0.00
2014-1-11,39.6,33.7,27.9,27.5,18.9,9.7,84,56,33,23.68,40.00,7,2,23,0.20
2014-1-12,27.5,24.7,22.3,15.4,7.5,2.3,66,48,35,23.74,23.74,0,0,0,0.00
2014-1-13,34.9,30.2,25.0,12.7,10.8,7.2,53,44,32,23.92,23.71,6,1,16,0.04
2014-1-14,37.0,29.3,18.9,9.5,6.0,-2.9,58,38,19,24.10,23.92,9,4,15,0.00
2014-1-15,36.3,24.7,16.9,6.1,2.4,-2.9,56,39,19,24.04,23.95,8,4,14,0.00
2014-1-16,28.9,18.5,12.7,4.3,-8.5,-99.9,56,41,26,24.04,23.95,7,3,12,0.00
2014-1-17,40.6,23.7,13.5,3.0,-3.7,-99.9,50,34,16,23.95,23.86,7,4,12,0.00
2014-1-18,36.9,23.9,16.0,4.3,-1.3,-9.4,47,34,16,23.95,23.89,7,3,12,0.00
2014-1-19,42.1,24.3,18.5,-0.4,-3.4,-6.9,40,30,15,23.89,23.80,8,5,14,0.00
2014-1-20,42.3,25.0,15.3,-0.4,-4.3,-15.0,45,29,15,24.04,23.80,6,3,12,0.00
2014-1-21,43.7,24.6,15.6,-0.2,-7.7,-16.8,34,24,15,24.04,23.86,7,4,11,0.00
2014-1-22,29.7,22.1,16.7,9.5,-0.4,-7.2,55,37,23,23.86,23.68,6,3,11,0.00
2014-1-23,30.4,15.8,5.0,3.6,-48.5,-99.9,57,17,18,24.04,23.80,6,3,10,0.00
2014-1-24,30.4,19.0,9.9,-4.2,-39.2,-99.9,34,16,18,24.07,24.01,7,3,12,0.00
2014-1-25,31.1,19.8,12.0,-2.7,-17.1,-99.9,45,24,18,24.01,23.80,6,3,10,0.00
2014-1-26,29.5,20.0,11.7,3.2,-15.5,-99.9,45,29,18,23.80,23.65,7,3,12,0.00
2014-1-27,24.6,17.8,3.7,8.1,-22.2,-99.9,60,31,17,23.80,23.62,9,2,13,0.00
2014-1-28,25.0,13.0,0.3,5.9,-47.5,-99.9,54,15,17,23.86,23.74,7,4,11,0.00
2014-1-29,36.1,26.6,20.3,25.5,14.3,1.9,80,60,39,23.74,23.50,5,0,13,0.00
2014-1-30,32.2,27.3,24.1,23.2,16.4,9.5,80,64,42,0.00,40.00,0,0,8,0.04
2014-1-31,25.9,19.4,11.1,9.7,-9.7,-99.9,58,42,33,0.00,40.00,6,1,10,0.08
2014-2-1,21.2,14.8,5.4,4.3,-31.2,-99.9,56,30,20,23.62,23.62,8,3,12,0.00
2014-2-2,29.3,18.6,12.9,1.4,-14.2,-99.9,52,33,18,23.62,40.00,6,2,12,0.00
2014-2-3,26.4,19.7,14.9,7.2,0.1,-7.6,59,43,24,0.00,40.00,8,4,14,0.00
2014-2-4,16.5,1.8,-8.3,-3.1,-92.6,-99.9,41,3,36,23.62,23.62,6,2,11,0.00
2014-2-5,11.8,0.7,-8.7,-99.9,-99.9,-99.9,0,0,100,23.65,23.56,10,3,16,0.00
2014-2-6,11.5,3.6,-6.3,-99.9,-99.9,-99.9,0,0,100,23.56,40.00,4,0,7,0.00
2014-2-7,26.4,21.5,12.4,14.5,3.6,-99.9,68,51,32,0.00,40.00,10,3,15,0.00
2014-2-8,34.2,30.0,20.8,26.4,18.0,8.8,79,61,42,23.53,40.00,13,6,25,0.00
2014-2-9,36.9,33.3,30.0,26.6,13.5,7.5,78,45,31,23.62,23.59,11,4,24,0.04
2014-2-10,36.5,26.6,21.0,12.9,8.5,-4.7,64,47,20,23.77,23.59,6,2,11,0.04
2014-2-11,36.0,30.2,24.1,13.3,9.9,6.3,50,42,32,23.74,23.62,9,3,21,0.00
2014-2-12,32.4,29.7,27.5,23.5,15.9,5.7,73,58,34,23.74,23.56,7,4,16,0.00
2014-2-20,23.7,5.9,23.7,16.6,-70.8,-99.9,74,18,74,29.90,29.90,10,-747,0,0.00
2014-2-21,29.8,23.6,24.3,18.1,-2.5,-99.9,67,52,60,29.94,29.92,12,-159,0,0.00
2014-2-22,24.1,15.7,23.0,19.2,-20.7,-99.9,85,55,79,29.94,29.92,4,-331,0,0.00
2014-2-24,-200.0,0.0,200.0,-99.9,-99.9,-99.9,0,0,100,0.00,40.00,0,-999,0,0.00
2014-2-27,73.6,36.2,33.3,40.3,32.4,24.6,99,87,30,29.93,29.63,5,0,7,0.08
2014-2-28,52.9,34.9,32.0,33.4,27.3,-99.9,99,81,49,29.70,29.52,20,-24,22,0.40
2014-3-1,39.7,28.7,17.8,34.2,25.9,13.8,99,89,72,29.78,29.45,4,0,7,0.04
2014-3-2,50.0,34.0,23.7,34.9,28.9,22.3,98,82,53,29.93,29.78,6,0,7,0.57
2014-3-3,46.2,37.5,33.4,34.9,31.1,28.6,97,78,57,29.97,29.88,19,3,22,0.57
2014-3-4,53.2,34.7,29.7,37.6,30.8,25.7,96,86,53,30.01,29.85,9,1,15,0.11
2014-3-5,54.5,37.0,28.0,32.4,19.9,-99.9,88,60,37,30.04,29.95,14,-57,17,0.22
2014-3-6,43.5,38.5,34.5,36.9,31.3,26.2,88,75,60,29.95,29.81,16,4,20,0.32
2014-3-7,41.9,32.7,26.1,33.6,24.8,17.6,90,73,54,30.14,29.89,10,2,15,0.01
2014-3-8,47.3,33.2,23.4,25.9,20.3,14.5,72,60,37,30.32,30.14,11,3,12,0.00
2014-3-9,58.6,40.2,31.1,30.6,23.2,16.3,71,52,26,30.26,30.12,16,4,22,0.00
2014-3-10,51.1,38.9,28.8,36.0,30.5,21.2,95,74,32,30.12,29.84,28,5,32,0.09
2014-3-11,45.3,30.3,22.5,32.2,22.8,14.0,95,75,44,30.32,29.92,13,3,15,0.15
2014-3-12,49.3,28.7,16.5,23.4,14.5,6.6,73,57,26,30.33,30.19,11,4,12,0.00
2014-3-13,53.6,33.4,22.6,26.8,18.0,12.7,69,54,30,30.19,30.01,14,4,17,0.00
2014-3-14,54.1,35.5,25.7,31.1,20.9,11.8,93,58,26,30.06,30.00,21,4,22,0.00
2014-3-15,47.7,31.0,18.7,28.8,17.0,6.1,90,60,22,30.35,30.03,10,1,12,0.07
2014-3-16,60.3,38.7,23.7,25.7,17.1,7.7,59,43,21,30.36,29.96,15,4,17,0.00
2014-3-17,47.5,34.5,22.8,27.7,20.8,13.1,93,61,29,29.96,29.57,25,6,32,0.00
2014-3-18,46.4,26.5,20.8,26.4,17.9,10.8,90,71,37,30.09,29.88,8,1,12,0.15
2014-3-19,52.7,28.8,14.7,17.6,10.1,0.9,72,48,24,30.15,30.02,13,4,17,0.01
2014-3-20,45.5,36.2,26.2,22.1,11.8,-4.4,52,37,20,30.04,29.91,26,7,32,0.00
2014-3-21,38.3,25.1,12.6,13.1,1.3,-11.2,57,37,18,30.09,30.00,11,3,12,0.00
2014-3-22,39.6,26.2,15.3,12.7,5.5,-8.0,54,42,22,30.15,29.99,12,3,15,0.00
2014-3-23,48.9,32.5,20.7,18.3,7.3,-2.6,55,35,20,30.14,30.03,22,4,30,0.00
2014-3-24,51.8,33.1,18.0,20.3,11.1,1.4,62,42,19,30.21,30.11,11,3,15,0.00
2014-3-25,66.9,43.8,31.1,20.1,14.9,10.6,55,33,15,30.15,29.69,18,5,22,0.00
2014-3-26,47.5,38.8,30.6,30.9,23.8,14.4,92,55,36,29.69,29.58,17,3,20,0.00
2014-3-27,45.1,31.6,25.2,31.8,25.0,17.6,99,78,44,29.90,29.66,15,1,22,0.12
2014-3-28,53.8,34.6,26.8,26.4,21.9,12.7,79,61,29,30.10,29.89,18,3,22,0.15
2014-3-29,49.1,40.3,33.6,35.8,28.3,20.7,99,64,36,30.08,29.87,21,6,25,0.09
2014-3-30,41.4,33.1,28.4,39.0,31.1,27.3,99,93,74,29.88,29.67,23,1,28,0.26
2014-3-31,51.6,31.8,24.4,35.6,22.8,13.5,96,71,31,29.99,29.86,12,1,15,0.24
2014-4-1,52.0,31.4,16.0,28.9,19.0,-99.9,92,63,30,29.86,29.70,17,-1,22,0.05
2014-4-2,49.6,29.1,24.1,31.6,19.9,11.5,89,70,40,29.92,29.77,10,1,12,0.14
2014-4-3,47.1,30.6,24.8,32.4,18.6,-99.9,87,66,34,30.06,29.92,11,-17,15,0.02
2014-4-4,55.2,32.2,23.4,33.1,19.4,11.3,81,60,29,30.05,29.91,15,4,17,0.00
2014-4-5,59.9,35.8,26.6,33.6,24.5,17.8,99,66,27,30.02,29.92,16,3,20,0.00
2014-4-6,51.3,34.6,27.0,36.1,27.8,22.3,97,78,42,30.16,30.00,18,2,25,0.11
2014-4-7,59.4,35.1,23.2,32.4,19.8,-99.9,81,60,30,30.28,30.16,11,-28,15,0.00
2014-4-8,69.3,47.0,33.8,32.0,28.3,22.6,72,51,22,30.27,30.13,16,4,20,0.00
2014-4-9,65.1,49.4,37.4,32.5,28.3,18.0,72,47,25,30.14,29.96,25,5,32,0.00
2014-4-10,60.1,43.5,32.7,32.7,24.4,16.7,70,49,23,30.10,30.02,18,4,25,0.00
2014-4-11,63.0,47.0,34.0,27.9,22.5,12.0,58,40,19,30.07,29.88,20,5,22,0.00
2014-4-12,60.6,44.6,34.5,31.6,25.2,12.7,82,51,20,29.91,29.77,21,4,22,0.00
2014-4-13,45.1,31.1,20.7,31.8,19.4,-0.4,97,65,29,30.22,29.81,29,6,32,0.02
2014-4-14,52.5,31.6,15.1,11.1,2.8,-9.6,54,32,17,30.26,30.10,14,4,20,0.00
2014-4-15,53.8,38.8,28.0,33.1,15.8,3.7,74,41,18,30.11,29.77,28,5,35,0.00
2014-4-16,54.3,35.5,21.6,20.8,12.4,3.7,63,41,18,30.04,29.94,15,3,17,0.00
2014-4-17,63.7,44.1,29.5,27.0,18.7,12.2,53,38,19,30.05,29.89,16,6,20,0.00
2014-4-18,57.2,44.5,34.0,40.3,30.9,-99.9,95,62,25,30.03,29.88,22,1,25,0.37
2014-4-19,67.3,46.6,32.5,26.6,18.4,6.4,63,36,16,30.07,30.01,17,4,20,0.00
2014-4-20,63.3,47.5,35.1,32.4,24.7,12.9,74,44,18,30.23,30.04,18,5,20,0.00
2014-4-21,68.9,48.4,29.8,27.9,18.6,12.4,63,35,12,30.25,30.01,19,5,22,0.00
2014-4-22,68.2,48.4,33.8,40.6,34.8,23.2,91,63,24,30.03,29.61,30,7,35,0.05
2014-4-23,46.4,33.9,27.7,31.3,24.3,18.9,91,69,44,30.01,29.78,18,3,20,0.14
2014-4-24,46.6,37.6,29.8,36.7,27.2,19.4,86,67,43,30.02,29.95,14,4,25,0.06
2014-4-25,56.8,42.3,36.1,39.4,34.5,30.7,92,75,44,29.95,29.65,22,6,28,0.11
2014-4-26,39.9,36.0,33.6,37.0,33.4,31.1,97,90,83,29.68,29.57,13,2,15,0.45
2014-4-27,47.3,34.4,29.1,33.1,27.6,22.6,92,77,51,29.87,29.68,15,2,20,0.15
2014-4-28,43.5,30.5,21.7,29.1,20.7,12.4,84,68,44,30.27,29.87,26,3,32,0.11
2014-4-29,46.8,32.8,19.4,23.2,17.3,12.2,76,55,30,30.43,30.26,26,5,28,0.00
2014-4-30,57.6,39.2,23.9,22.5,16.2,9.0,71,44,16,30.45,30.31,33,6,40,0.04
2014-5-1,67.6,47.6,31.6,30.7,21.0,12.2,58,38,18,30.34,30.17,15,5,17,0.00
2014-5-2,71.4,54.6,39.9,30.9,25.1,13.5,63,37,12,30.18,30.02,20,6,22,0.00
2014-5-3,75.6,57.7,41.7,29.5,22.8,12.2,53,31,10,30.03,29.90,25,7,30,0.00
2014-5-4,68.2,53.8,43.7,31.1,23.3,13.5,54,33,16,29.95,29.85,22,6,25,0.00
2014-5-5,60.3,49.6,42.6,33.1,28.2,18.3,61,45,25,29.95,29.85,25,5,30,0.00
2014-5-6,55.9,43.8,37.0,43.5,36.0,28.8,96,75,54,29.85,29.70,18,4,22,0.31
2014-5-7,43.9,38.2,32.5,39.0,35.4,31.5,97,90,75,29.88,29.74,14,2,15,0.12
2014-5-8,57.9,41.0,26.8,32.9,26.6,-99.9,99,62,27,29.97,29.88,16,-1,22,0.00
2014-5-9,54.7,42.0,35.6,41.4,34.6,27.0,94,77,43,29.94,29.84,26,4,30,0.13
2014-5-10,51.6,39.7,29.3,33.8,27.9,20.3,85,64,38,29.97,29.87,19,3,22,0.01
2014-5-11,53.2,37.9,24.8,28.6,20.3,11.3,84,53,22,30.13,29.91,29,6,32,0.00
2014-5-12,52.0,37.4,26.1,24.3,15.4,4.1,68,43,18,30.37,30.12,23,4,28,0.00
2014-5-13,59.4,40.6,25.2,21.9,14.5,3.9,61,38,17,30.42,30.35,17,4,20,0.00
2014-5-14,64.2,48.1,32.9,28.8,19.9,12.0,58,35,18,30.38,30.27,28,5,30,0.00
2014-5-15,71.1,54.5,37.8,36.0,29.9,19.0,74,43,17,30.28,30.14,18,5,22,0.00
2014-5-16,70.5,53.5,42.3,43.7,35.2,28.9,82,52,26,30.15,30.05,22,5,25,0.00
2014-5-17,74.3,55.7,40.8,44.1,35.2,21.6,85,51,18,30.07,29.92,16,4,20,0.00
2014-5-18,65.8,54.4,39.4,40.6,32.8,23.9,85,47,24,29.94,29.79,20,6,25,0.04
2014-5-19,65.7,47.2,33.8,34.0,28.8,20.1,79,53,21,30.02,29.87,20,4,25,0.00
2014-5-20,66.9,49.3,35.8,46.2,32.8,26.2,77,56,26,30.01,29.96,24,4,28,0.04
2014-5-21,75.4,56.4,39.6,43.3,35.5,16.5,88,52,13,30.13,30.00,30,6,35,0.04
2014-5-22,80.4,58.9,38.7,42.8,30.9,15.4,80,42,13,30.16,30.11,30,6,32,0.00
2014-5-23,77.9,61.8,48.0,41.9,36.1,-99.9,62,41,21,30.16,30.02,23,2,28,0.00
2014-5-24,76.8,57.8,45.1,45.1,39.7,32.7,73,53,28,30.10,30.01,21,6,25,0.00
2014-5-25,79.0,57.8,42.3,47.3,40.1,29.7,79,55,21,30.13,30.06,21,4,22,0.00
2014-5-26,79.9,62.7,47.8,42.1,35.1,23.5,65,40,15,30.13,30.07,20,6,25,0.00
2014-5-27,83.1,65.0,46.6,39.7,32.9,19.9,61,34,11,30.13,30.06,23,6,28,0.00
2014-5-28,86.7,68.5,51.6,43.9,32.8,18.5,58,29,16,30.06,29.93,30,7,35,0.19
2014-5-29,70.2,54.8,43.0,38.3,28.9,16.5,68,41,19,30.16,30.03,19,4,22,0.00
2014-5-30,82.2,57.6,39.0,41.4,33.0,22.6,73,45,15,30.17,30.02,17,3,22,0.00
2014-5-31,68.0,57.8,46.4,48.9,41.8,30.7,86,56,38,30.05,29.98,26,7,32,1.51
2014-6-1,70.9,52.9,42.6,44.1,37.9,30.9,76,58,31,30.12,29.98,15,3,17,0.00
2014-6-2,81.5,58.9,39.4,43.0,31.6,-99.9,83,41,14,30.11,29.95,16,-6,20,0.00
2014-6-3,76.5,59.2,43.7,44.4,35.1,26.4,69,42,18,30.04,29.88,36,4,45,0.00
2014-6-4,73.6,57.4,43.5,43.2,33.7,14.9,63,44,12,30.09,30.02,34,5,40,0.00
2014-6-5,78.1,60.7,46.0,34.0,24.6,12.2,54,28,10,30.09,30.02,20,6,25,0.00
2014-6-6,77.2,59.8,42.3,39.4,25.4,12.6,57,30,10,30.06,29.99,23,4,28,0.00
2014-6-7,73.8,57.8,43.2,44.4,34.5,18.1,74,44,14,30.09,30.02,17,4,20,0.00
2014-6-8,65.5,52.4,38.8,46.0,37.8,28.8,99,62,29,30.18,30.08,21,4,25,0.00
2014-6-9,78.3,61.7,45.7,39.0,32.0,20.7,58,36,13,30.18,30.00,16,5,22,0.00
2014-6-10,78.8,63.4,48.9,42.4,31.0,14.9,54,32,12,30.01,29.92,22,5,25,0.00
2014-6-11,71.4,54.8,37.4,41.7,33.2,14.9,76,46,21,30.08,29.96,17,4,20,0.00
2014-6-12,85.3,64.4,45.3,48.6,33.1,22.8,78,34,14,30.07,29.88,30,7,35,0.02
2014-6-13,70.5,60.5,48.4,45.3,32.5,20.3,66,37,18,29.95,29.85,22,5,30,0.00
2014-6-14,62.4,46.8,37.8,39.9,33.5,23.9,90,61,37,30.01,29.92,24,3,28,0.02
2014-6-15,65.8,50.7,36.5,42.6,33.4,24.4,75,55,24,30.00,29.88,15,4,22,0.00
2014-6-16,61.9,48.4,39.0,49.1,39.6,34.0,99,73,45,29.91,29.79,21,4,25,0.64
2014-6-17,54.5,44.4,38.1,40.5,34.7,29.3,99,71,46,30.01,29.83,14,1,17,0.11
2014-6-18,50.9,40.2,33.8,41.2,33.2,27.5,93,76,60,30.15,30.00,14,2,20,0.15
2014-6-19,74.5,54.5,34.2,43.5,36.5,27.0,88,55,19,30.19,30.12,17,4,22,0.00
2014-6-20,82.9,64.1,48.4,45.1,36.3,25.3,64,40,16,30.16,30.05,15,5,20,0.00
2014-6-21,81.9,62.6,48.4,48.9,38.0,19.4,63,43,12,30.07,30.02,15,4,17,0.00
2014-6-22,76.8,59.0,47.3,46.2,39.0,30.9,76,49,24,30.14,30.04,20,4,28,0.00
2014-6-23,75.0,60.0,43.7,46.9,40.5,34.7,75,51,29,30.14,30.10,16,3,20,0.00
2014-6-24,87.6,65.2,48.2,47.8,39.3,23.7,66,42,14,30.13,30.03,20,4,25,0.00
2014-6-25,79.3,65.6,52.2,51.4,41.8,34.0,68,43,25,30.08,29.95,15,4,17,0.00
2014-6-26,76.3,59.5,49.3,54.1,46.6,38.8,89,64,34,29.99,29.89,18,4,25,0.11
2014-6-27,66.6,52.0,46.6,52.3,46.2,42.4,99,81,58,30.02,29.93,17,2,20,1.95
2014-6-28,72.9,56.5,45.1,48.7,42.3,35.1,99,64,30,30.06,29.98,18,4,28,0.04
2014-6-29,77.4,59.1,40.6,42.1,32.4,19.0,74,41,16,30.12,30.05,23,4,25,0.00
2014-6-30,67.8,54.8,38.5,40.1,32.9,24.6,78,46,25,30.26,30.09,17,4,22,0.00
2014-7-1,79.9,59.5,40.8,43.5,33.6,16.5,70,43,13,30.26,30.19,13,3,15,0.00
2014-7-2,89.4,69.2,50.7,48.6,38.9,31.3,55,35,16,30.21,30.11,25,6,30,0.00
2014-7-3,88.7,70.8,60.6,50.2,42.7,38.1,50,38,20,30.20,30.12,27,7,35,0.00
2014-7-4,90.1,71.3,61.9,53.1,44.8,37.4,63,40,20,30.20,30.14,22,6,28,0.06
2014-7-5,90.7,75.0,61.9,51.8,39.2,22.5,47,30,11,30.26,30.16,17,5,22,0.00
2014-7-6,89.4,71.9,55.2,51.6,38.1,24.3,50,30,19,30.28,30.17,15,4,25,0.00
2014-7-7,84.6,69.7,52.7,47.8,40.0,30.7,59,36,18,30.22,30.13,19,5,20,0.00
2014-7-8,93.7,72.5,56.5,54.0,44.4,37.4,56,38,19,30.19,30.12,22,5,28,0.00
2014-7-9,90.5,72.5,57.0,50.2,41.2,27.1,56,35,17,30.14,30.05,15,4,20,0.00
2014-7-10,87.3,70.3,61.0,57.2,49.8,39.6,69,50,24,30.14,30.06,15,3,22,0.00
2014-7-11,89.4,69.7,57.2,56.1,49.4,37.0,67,50,21,30.23,30.11,18,4,22,0.00
2014-7-12,87.8,69.5,57.7,63.1,50.9,44.8,78,53,33,30.32,30.22,17,4,20,0.04
2014-7-13,88.3,70.8,55.4,57.0,47.3,35.4,73,46,20,30.34,30.26,14,3,17,0.00
2014-7-14,88.3,71.4,59.5,55.2,47.5,43.3,62,44,26,30.29,30.20,33,7,37,0.00
2014-7-15,86.2,68.7,56.7,57.7,49.4,36.0,94,54,21,30.20,30.09,28,6,32,0.59
2014-7-16,78.6,62.4,47.8,54.9,47.9,37.6,99,64,25,30.17,30.11,14,3,17,0.00
2014-7-17,85.1,66.0,49.1,51.1,43.1,25.5,74,47,13,30.16,30.05,18,3,22,0.01
2014-7-18,86.9,70.4,54.3,53.8,40.5,24.3,65,38,13,30.12,30.06,17,4,20,0.00
2014-7-19,86.0,70.2,52.3,45.1,33.9,19.2,48,27,16,30.14,30.08,20,5,28,0.00
2014-7-20,87.1,70.7,54.0,48.4,40.1,31.5,57,35,18,30.13,30.05,18,4,22,0.00
2014-7-21,80.8,68.3,58.5,54.3,47.2,36.1,69,48,26,30.26,30.07,24,5,32,0.00
2014-7-22,94.1,71.3,55.9,52.5,43.8,30.4,63,41,13,30.32,30.22,15,3,17,0.00
2014-7-23,95.7,76.7,59.9,49.6,36.8,24.6,50,26,10,30.26,30.09,21,5,22,0.00
2014-7-24,84.9,69.1,48.9,48.6,34.0,13.8,55,30,10,30.17,30.09,15,4,20,0.00
2014-7-25,82.2,62.5,42.6,36.3,24.4,14.9,43,26,10,30.16,30.12,21,4,22,0.00
2014-7-26,82.9,64.7,47.5,42.1,31.9,20.1,55,32,10,30.29,30.16,13,4,15,0.00
2014-7-27,89.8,70.5,52.0,48.6,33.5,20.1,46,28,10,30.32,30.25,17,4,20,0.00
2014-7-28,92.1,72.5,56.1,54.1,42.1,28.9,63,35,16,30.31,30.24,19,4,28,0.00
2014-7-29,70.0,53.2,55.9,58.8,44.3,46.0,90,61,50,30.31,30.22,19,2,28,0.11
2014-7-30,85.1,63.2,49.8,55.9,47.9,39.6,82,61,27,30.32,30.25,10,2,12,0.00
2014-7-31,84.9,64.6,50.2,54.3,47.9,38.3,84,58,24,30.32,30.22,14,3,17,0.00
2014-8-1,86.2,65.7,53.4,54.3,45.6,35.2,67,50,22,30.30,30.22,18,3,22,0.00
2014-8-2,87.4,68.0,52.2,55.2,45.5,35.4,69,47,22,30.27,30.20,14,2,20,0.00
2014-8-3,87.8,70.5,55.0,53.6,43.6,34.7,61,40,20,30.24,30.15,35,3,40,0.00
2014-8-4,73.4,60.4,55.8,60.1,51.4,41.2,96,74,43,30.27,30.14,21,3,25,0.40
2014-8-5,70.0,60.2,55.9,60.4,54.7,50.0,97,83,54,30.20,30.13,19,2,22,0.33
2014-8-6,73.8,58.0,52.0,59.0,53.4,50.2,96,85,53,30.23,30.16,16,2,17,0.13
2014-8-7,75.9,56.7,45.9,56.1,48.5,45.1,99,74,39,30.22,30.12,13,3,17,0.22
2014-8-8,77.4,58.7,46.2,56.1,48.8,42.6,93,72,36,30.20,30.14,19,3,22,0.12
2014-8-9,84.6,62.7,47.8,53.8,46.8,30.6,96,61,16,30.28,30.17,12,2,12,0.00
2014-8-10,87.1,66.9,51.4,50.7,43.6,32.7,72,47,18,30.33,30.26,19,4,22,0.00
2014-8-11,93.4,69.3,54.1,59.4,46.1,35.6,63,46,17,30.32,30.25,15,3,20,0.00
2014-8-12,85.3,70.0,60.8,53.4,47.3,41.5,72,45,28,30.27,30.18,15,4,20,0.00
2014-8-13,83.8,65.0,53.1,58.6,53.3,45.5,94,69,31,30.27,30.13,15,2,22,0.05
2014-8-14,79.9,62.4,52.0,62.1,54.5,45.3,99,77,47,30.19,30.13,15,2,17,0.20
2014-8-15,84.7,64.0,52.9,57.2,49.6,43.0,89,61,31,30.22,30.14,20,4,22,0.27
2014-8-16,81.1,64.3,50.4,51.4,44.1,37.6,80,51,24,30.24,30.19,15,4,25,0.00
2014-8-17,83.3,65.5,50.4,48.6,39.1,25.3,62,41,14,30.25,30.16,17,4,20,0.00
2014-8-18,86.4,67.0,51.6,46.9,39.9,26.4,72,41,15,30.21,30.06,21,4,22,0.00
2014-8-19,79.9,62.9,51.4,51.8,44.3,37.4,99,52,30,30.09,29.97,26,4,37,0.06
2014-8-20,74.5,55.8,45.5,53.1,48.7,43.0,99,79,39,30.13,29.98,20,3,25,0.40
2014-8-21,73.6,53.6,50.0,54.9,48.8,46.0,99,83,46,30.19,30.09,13,1,15,0.37
2014-8-22,55.9,50.9,45.5,49.1,45.0,41.7,99,81,64,30.19,30.06,23,6,30,0.13
2014-8-23,55.2,47.7,44.8,46.0,44.1,40.8,97,88,68,30.12,30.03,13,1,17,0.34
2014-8-24,71.4,51.1,42.6,47.7,43.1,37.9,99,77,40,30.13,30.09,11,2,12,0.04
2014-8-25,68.4,52.3,41.5,51.6,43.9,38.3,95,75,44,30.17,30.08,20,3,25,0.02
2014-8-26,74.7,57.3,43.5,50.9,45.2,38.5,96,67,29,30.24,30.14,17,2,20,0.00
2014-8-27,78.3,58.5,47.1,50.5,44.6,38.8,84,63,30,30.25,30.20,13,2,15,0.00
2014-8-28,82.8,62.7,47.7,50.2,44.3,35.6,80,55,23,30.26,30.15,11,3,17,0.00
2014-8-29,82.8,65.9,52.7,49.3,43.2,36.5,72,47,23,30.17,30.07,15,4,20,0.00
2014-8-30,75.7,60.5,49.1,51.6,45.1,38.3,85,58,32,30.08,29.97,20,4,28,0.20
2014-8-31,66.6,50.5,43.5,47.7,44.0,38.8,98,80,44,30.09,29.96,15,2,17,0.39
2014-9-1,70.9,53.4,41.4,42.4,36.2,29.1,80,55,25,30.14,30.05,19,4,22,0.00
2014-9-2,80.4,62.0,45.5,41.4,35.8,26.2,71,42,15,30.14,29.96,16,5,20,0.00
2014-9-3,72.9,60.3,40.8,39.0,27.2,9.9,57,31,11,30.05,29.87,15,5,20,0.00
2014-9-4,65.8,48.8,33.3,31.6,22.8,15.8,63,40,16,30.18,30.04,11,3,15,0.00
2014-9-5,73.6,53.2,36.5,41.9,32.1,25.2,75,48,19,30.27,30.16,12,3,15,0.00
2014-9-6,80.4,62.2,46.4,46.2,39.3,23.9,66,45,16,30.27,30.17,21,4,22,0.00
2014-9-7,79.7,64.1,53.4,49.5,39.8,32.0,60,42,20,30.18,30.05,22,5,25,0.00
2014-9-8,80.8,62.6,52.9,51.3,39.3,23.2,68,44,16,30.08,30.00,22,7,30,0.01
2014-9-9,75.4,63.2,50.2,47.7,34.8,16.5,74,38,12,30.04,29.96,21,4,25,0.00
2014-9-10,66.9,52.4,39.0,39.7,31.9,25.7,74,47,28,30.12,30.03,14,4,20,0.00
2014-9-11,53.1,40.8,30.7,38.5,27.7,14.0,90,63,25,30.32,30.10,20,4,22,0.00
2014-9-12,69.6,46.5,29.5,27.5,17.3,11.5,61,35,13,30.32,30.15,17,4,20,0.00
2014-9-13,75.6,55.4,37.6,32.7,23.4,12.4,55,33,10,30.16,30.08,15,4,20,0.00
2014-9-14,75.2,59.0,43.3,40.8,26.6,12.2,64,35,10,30.16,30.08,18,5,20,0.00
2014-9-15,81.7,64.7,53.8,36.5,29.8,20.7,42,28,13,30.20,30.15,15,5,20,0.00
2014-9-16,86.4,65.5,55.9,47.7,37.4,28.8,55,37,20,30.20,30.10,13,4,15,0.00
2014-9-17,85.1,68.4,56.3,50.5,40.8,31.1,57,39,16,30.12,30.03,15,4,20,0.00
2014-9-18,76.3,63.2,54.9,61.3,48.9,38.5,92,61,36,30.07,29.96,17,4,22,0.18
2014-9-19,73.6,59.6,47.5,51.1,43.7,35.1,90,60,27,30.20,30.03,15,4,17,0.00
2014-9-20,79.5,60.1,43.3,45.9,40.8,30.7,80,52,19,30.27,30.19,12,3,15,0.00
2014-9-21,75.7,63.8,51.1,52.5,41.9,37.4,98,48,29,30.24,30.17,15,5,20,0.20
2014-9-22,71.2,55.7,49.8,54.5,50.4,45.5,99,84,49,30.22,30.15,10,2,12,0.38
2014-9-23,79.5,60.3,49.8,52.3,48.7,42.3,98,69,30,30.23,30.18,11,2,15,0.00
2014-9-24,85.1,66.1,54.9,48.6,44.0,37.0,72,48,22,30.24,30.16,15,5,17,0.00
2014-9-25,86.9,68.5,56.1,45.1,40.2,33.1,54,38,18,30.18,30.04,19,6,22,0.00
2014-9-26,81.1,61.8,47.3,51.6,43.7,34.5,95,54,20,30.13,30.04,19,3,22,0.01
2014-9-27,55.9,52.5,49.8,52.3,50.3,47.1,99,92,74,30.09,30.01,13,1,15,0.85
2014-9-28,56.8,49.9,38.3,52.5,46.9,-2.6,99,90,11,30.08,30.01,13,2,17,0.26
2014-9-29,59.5,43.9,39.0,45.5,41.6,38.5,99,92,57,30.08,29.98,7,1,10,0.39
2014-9-30,51.4,44.0,39.4,48.0,41.9,34.3,99,92,73,30.00,29.91,11,1,15,0.47
2014-10-1,50.9,39.0,33.6,39.0,34.3,30.4,99,84,56,30.16,29.97,12,2,15,0.18
2014-10-2,55.9,42.7,32.4,34.7,30.0,24.6,93,64,38,30.29,30.15,19,3,25,0.00
2014-10-3,59.4,41.5,29.1,31.3,22.2,9.0,84,53,18,30.42,30.28,14,3,15,0.00
2014-10-4,65.1,47.9,34.0,36.3,30.6,23.5,77,54,23,30.35,30.21,14,4,17,0.00
2014-10-5,68.0,51.1,39.6,43.3,38.6,32.9,87,65,32,30.23,30.16,19,6,25,0.00
2014-10-6,70.5,51.5,39.0,41.7,37.3,29.3,87,62,25,30.18,30.11,12,4,17,0.00
2014-10-7,74.1,54.6,42.6,43.7,40.0,35.8,84,61,28,30.16,30.11,13,4,15,0.00
2014-10-8,75.7,54.6,43.3,41.7,34.4,20.3,74,51,16,30.14,30.06,12,3,17,0.00
2014-10-9,75.6,54.8,44.4,39.7,32.5,16.3,68,46,12,30.11,30.05,14,4,17,0.00
2014-10-10,67.3,52.9,41.2,45.1,37.1,29.1,72,56,28,30.15,30.10,19,4,22,0.00
2014-10-11,66.2,49.4,37.6,41.0,31.1,25.0,88,51,29,30.14,29.91,17,3,22,0.06
2014-10-12,49.5,39.6,31.3,39.0,32.9,25.9,99,79,46,30.21,29.92,24,3,35,0.13
2014-10-13,59.5,41.1,31.1,34.2,29.8,25.2,91,67,30,30.26,30.19,17,3,20,0.00
2014-10-14,73.2,52.2,37.0,37.8,31.9,25.2,78,50,19,30.24,30.00,21,4,25,0.00
2014-10-15,68.2,56.7,36.7,35.1,24.6,18.3,61,31,16,30.11,29.90,24,7,32,0.00
2014-10-16,55.4,40.7,29.3,30.4,24.4,19.9,74,54,29,30.18,30.10,9,2,12,0.00
2014-10-17,68.5,49.1,35.1,35.2,29.1,21.0,64,49,21,30.14,30.07,14,4,17,0.00
2014-10-18,69.3,53.3,40.3,39.0,34.0,28.8,75,50,25,30.15,30.08,14,4,17,0.00
2014-10-19,69.3,50.0,34.9,33.6,27.1,13.5,76,46,13,30.17,30.10,12,3,15,0.00
2014-10-20,74.1,56.4,42.8,40.6,31.5,25.5,54,40,21,30.12,29.98,15,5,17,0.00
2014-10-21,59.4,45.4,35.1,45.0,35.4,27.9,95,69,41,30.10,29.91,32,4,40,0.12
2014-10-22,57.6,41.1,30.4,34.0,28.0,19.6,92,63,28,30.19,30.09,14,2,17,0.00
2014-10-23,63.3,48.9,38.7,34.3,28.6,23.7,61,46,29,30.16,30.09,12,3,17,0.00
2014-10-24,69.6,53.5,44.1,39.6,31.4,21.4,70,46,18,30.18,30.14,17,4,22,0.00
2014-10-25,72.7,59.9,48.4,38.8,25.0,18.0,60,27,13,30.17,29.88,24,8,28,0.00
2014-10-26,52.0,40.8,32.2,43.2,31.8,22.5,96,71,50,30.02,29.95,19,4,22,0.26
2014-10-27,44.1,33.1,28.6,32.5,26.0,21.7,96,76,51,30.16,29.98,10,1,12,0.02
2014-10-28,52.5,35.8,24.8,24.4,19.9,14.9,75,55,25,30.24,30.16,13,4,17,0.00
2014-10-29,55.4,42.7,33.1,35.1,27.5,18.0,77,56,34,30.26,30.18,13,4,17,0.00
2014-10-30,65.8,49.2,36.7,34.5,29.6,20.8,81,50,24,30.29,30.14,21,5,25,0.00
2014-10-31,68.0,55.3,47.8,30.6,25.7,18.0,44,33,16,30.15,29.90,27,10,37,0.00
2014-11-1,62.4,51.0,37.6,43.9,29.4,22.1,91,47,29,29.91,29.66,28,10,35,0.12
2014-11-2,43.5,34.0,30.9,33.1,30.8,27.0,99,89,52,30.02,29.82,13,1,17,0.09
2014-11-3,43.5,30.3,23.7,30.0,24.1,18.3,96,78,49,30.31,30.02,10,2,10,0.02
2014-11-4,43.7,34.2,24.6,30.2,25.7,19.4,84,71,56,30.32,30.24,11,2,15,0.02
2014-11-5,49.6,38.8,32.7,36.0,32.3,28.2,97,78,56,30.42,30.30,10,2,12,0.00
2014-11-6,61.7,43.0,30.4,38.3,30.0,19.2,87,63,21,30.41,30.19,18,4,20,0.00
2014-11-7,54.9,44.5,32.2,38.5,33.0,26.6,80,64,51,30.36,30.16,17,4,20,0.00
2014-11-8,56.1,40.1,28.6,34.7,27.9,24.4,92,64,34,30.36,30.18,16,5,17,0.00
2014-11-9,57.4,45.3,32.2,35.4,30.0,23.2,76,56,36,30.19,29.59,35,6,50,0.00
2014-11-10,44.8,27.5,20.3,36.9,23.3,14.9,99,85,53,29.95,29.60,25,1,35,0.02
2014-11-11,20.7,9.3,-4.7,18.9,1.1,-13.9,93,69,47,30.11,29.88,0,0,0,0.00
2014-11-12,15.1,5.7,-7.6,-5.1,-10.4,-18.4,70,48,34,30.16,30.10,20,5,25,0.00
2014-11-13,23.9,11.4,1.0,20.7,-0.4,-14.4,88,60,35,30.14,29.88,13,2,15,0.00
2014-11-14,34.5,28.7,17.4,31.5,26.1,12.4,97,90,76,29.88,29.72,0,0,0,0.00
2014-11-15,18.1,6.0,-2.9,12.7,-4.2,-14.3,83,63,41,30.18,29.79,0,0,0,0.00
2014-11-16,17.4,2.5,-5.1,0.0,-9.6,-16.1,69,57,40,30.35,30.16,0,0,0,0.00
2014-11-17,25.0,5.4,-9.9,3.9,-6.5,-21.3,71,58,34,30.35,30.26,0,0,0,0.00
2014-11-18,30.2,17.8,6.1,15.8,5.8,-3.8,71,60,34,30.28,30.16,0,0,0,0.00
2014-11-19,43.0,29.7,23.4,25.7,18.8,15.3,77,64,40,30.16,30.07,14,1,17,0.12
2014-11-20,45.5,31.6,23.0,27.1,19.9,11.8,82,63,38,30.08,30.01,14,3,17,0.04
2014-11-21,48.0,34.4,23.7,28.0,23.7,15.4,82,66,43,30.02,29.91,14,4,15,0.17
2014-11-22,39.4,32.2,22.6,34.0,26.2,15.6,94,79,53,29.93,29.66,23,5,25,0.12
2014-11-23,30.6,25.0,16.2,22.8,17.3,9.3,89,73,47,30.07,29.83,13,1,15,0.00
2014-11-24,36.9,26.0,21.0,20.8,14.3,7.7,86,62,41,30.27,29.98,11,2,15,0.00
2014-11-25,38.7,32.4,25.3,36.3,27.1,12.7,93,81,53,30.21,30.04,20,4,25,0.40
2014-11-26,43.7,39.8,37.6,34.7,32.0,27.5,87,74,56,30.26,30.11,18,4,22,0.00
2014-11-27,54.0,43.9,38.5,31.3,28.1,24.8,71,54,34,30.24,30.06,19,5,20,0.00
2014-11-28,50.0,46.5,41.9,27.9,18.1,8.2,56,33,21,30.06,29.73,20,5,25,0.00
2014-11-29,46.2,37.5,32.5,32.4,25.7,7.5,95,66,21,29.76,29.62,22,5,28,0.13
2014-11-30,33.4,22.1,12.0,25.2,11.1,3.4,76,63,47,30.09,29.73,21,2,28,0.00
2014-12-1,36.7,28.9,11.3,31.8,21.3,-0.6,90,73,41,30.12,30.01,26,3,30,0.01
2014-12-2,41.5,34.7,29.1,31.8,28.0,21.0,87,77,65,30.07,29.98,29,5,42,0.05
2014-12-3,41.9,34.1,25.7,35.6,27.8,17.2,89,78,63,30.03,29.96,20,2,25,0.12
2014-12-4,46.4,39.0,35.6,37.8,33.1,30.0,92,80,65,30.07,29.96,13,2,15,0.06
2014-12-5,46.2,37.9,34.9,36.5,31.3,27.1,84,77,62,30.24,30.07,14,3,17,0.01
2014-12-6,48.4,40.8,36.3,36.0,31.0,25.3,92,68,58,30.25,30.18,17,5,22,0.02
2014-12-7,49.1,38.8,33.8,32.7,29.3,24.4,80,69,49,30.33,30.24,12,2,17,0.00
2014-12-8,51.8,37.9,32.7,30.6,25.8,22.5,70,62,42,30.29,30.23,16,6,20,0.00
2014-12-9,57.9,38.3,30.2,29.8,23.7,16.2,71,57,24,30.27,30.16,13,4,17,0.00
2014-12-10,53.8,42.0,34.7,36.5,27.2,20.8,74,56,38,30.19,30.00,22,6,28,0.00
2014-12-11,51.4,45.7,40.3,26.1,21.0,14.4,45,37,26,30.01,29.93,25,9,37,0.00
2014-12-12,54.0,48.0,43.9,32.0,24.9,17.8,59,41,24,29.98,29.89,19,10,25,0.00
2014-12-13,44.4,35.1,28.8,35.6,29.2,24.4,98,80,54,29.97,29.83,17,3,20,0.09
2014-12-14,28.9,25.8,23.5,27.0,23.2,21.2,94,90,83,30.10,29.94,6,0,7,0.00
2014-12-15,32.2,22.7,12.4,24.3,17.1,6.4,93,79,59,30.15,30.05,0,0,0,0.00
2014-12-16,43.9,31.0,25.2,27.0,19.9,11.8,88,64,48,30.06,29.94,27,6,32,0.04
2014-12-17,38.5,29.5,24.4,25.9,21.7,17.2,89,73,51,30.03,29.94,7,1,10,0.01
2014-12-18,41.5,29.4,25.7,25.3,22.3,18.5,88,75,51,30.10,30.01,9,2,12,0.00
2014-12-19,39.7,31.2,27.5,28.2,24.8,20.7,93,77,59,30.10,30.03,8,1,10,0.00
2014-12-20,41.4,32.4,29.3,31.8,26.2,23.2,91,78,61,30.05,29.89,10,1,12,0.00
2014-12-21,38.1,32.7,22.8,33.6,28.9,17.2,95,86,68,29.93,29.73,24,5,30,0.05
2014-12-22,30.7,26.2,18.1,24.1,19.3,12.4,86,75,55,30.15,29.89,25,5,32,0.00
2014-12-23,30.9,20.9,13.8,15.3,11.4,6.4,79,67,49,30.27,30.15,6,1,10,0.00
2014-12-24,35.8,28.0,18.5,27.5,18.9,8.6,89,69,49,30.18,29.44,18,4,20,0.00
2014-12-25,32.2,22.4,14.5,28.9,18.2,8.8,94,84,76,29.85,29.45,6,0,12,0.00
2014-12-26,26.4,13.6,7.7,11.8,4.3,-2.9,82,67,40,30.10,29.84,0,0,0,0.00
2014-12-27,24.6,13.4,1.2,11.1,3.4,-9.6,71,64,53,30.18,30.01,0,0,0,0.00
2014-12-28,23.5,17.3,11.5,15.4,10.5,4.1,80,74,64,30.02,29.90,0,0,0,0.00
2014-12-29,24.8,10.3,3.9,8.4,-0.6,-10.1,74,62,42,30.14,29.97,0,0,0,0.00
2014-12-30,16.0,1.2,-9.4,-6.0,-13.7,-23.4,60,49,29,30.27,30.13,0,0,0,0.00
2014-12-31,14.9,1.9,-7.4,-1.7,-10.6,-18.8,68,56,39,30.27,30.06,0,0,0,0.00
2015-1-1,15.4,4.6,-3.8,1.9,-6.2,-14.3,69,61,41,30.09,30.02,0,0,0,0.00
2015-1-2,20.3,8.9,-3.6,8.8,-0.7,-13.2,73,64,53,30.10,29.96,0,0,0,0.00